Time;durP1;ratioP1;P1;durP2;ratioP2;P2;SDS_P1;SDS_P2;PMS_P1;PMS_P2;Temp;Humidity;BMP_temperature;BMP_pressure;BME280_temperature;BME280_humidity;BME280_pressure;Samples;Min_cycle;Max_cycle;Signal;HPM_P1;HPM_P2
2024/04/23 00:01:06;;;;;;;3.08;2.55;;;;;;;;;;5526279;26;20423;-79
2024/04/23 00:03:32;;;;;;;2.53;2.33;;;;;;;;;;5526329;26;20661;-79
2024/04/23 00:05:58;;;;;;;2.67;2.47;;;;;;;;;;5526609;26;20416;-79
2024/04/23 00:08:24;;;;;;;2.67;2.47;;;;;;;;;;5525925;26;20511;-79
2024/04/23 00:10:50;;;;;;;2.88;2.60;;;;;;;;;;5525635;26;20335;-79
2024/04/23 00:13:16;;;;;;;2.60;2.40;;;;;;;;;;5526211;26;20336;-79
2024/04/23 00:15:42;;;;;;;2.58;2.10;;;;;;;;;;5523774;26;20335;-79
2024/04/23 00:18:08;;;;;;;2.40;2.10;;;;;;;;;;5525939;26;20703;-79
2024/04/23 00:20:34;;;;;;;3.10;2.20;;;;;;;;;;5525706;26;20316;-79
2024/04/23 00:23:00;;;;;;;2.40;2.17;;;;;;;;;;5525945;26;20331;-79
2024/04/23 00:25:26;;;;;;;2.20;2.00;;;;;;;;;;5525596;26;20376;-79
2024/04/23 00:27:52;;;;;;;2.60;2.17;;;;;;;;;;5525696;26;20336;-78
2024/04/23 00:30:18;;;;;;;2.38;2.15;;;;;;;;;;5525494;26;20339;-79
2024/04/23 00:32:44;;;;;;;2.70;2.50;;;;;;;;;;5525522;26;20335;-79
2024/04/23 00:35:10;;;;;;;2.35;2.15;;;;;;;;;;5526007;26;20389;-79
2024/04/23 00:37:36;;;;;;;2.30;2.10;;;;;;;;;;5524706;26;20362;-78
2024/04/23 00:40:02;;;;;;;2.72;2.40;;;;;;;;;;5525195;26;20721;-78
2024/04/23 00:42:28;;;;;;;2.95;2.30;;;;;;;;;;5525296;26;20328;-78
2024/04/23 00:44:55;;;;;;;2.40;2.20;;;;;;;;;;5525492;26;20350;-78
2024/04/23 00:47:21;;;;;;;2.58;2.22;;;;;;;;;;5525496;26;20328;-78
2024/04/23 00:49:47;;;;;;;2.90;2.60;;;;;;;;;;5524629;26;20327;-78
2024/04/23 00:52:14;;;;;;;2.60;2.40;;;;;;;;;;5525103;26;20340;-79
2024/04/23 00:54:40;;;;;;;3.03;2.50;;;;;;;;;;5524897;26;20324;-78
2024/04/23 00:57:06;;;;;;;2.50;2.30;;;;;;;;;;5525829;26;20372;-78
2024/04/23 00:59:32;;;;;;;4.15;2.33;;;;;;;;;;5525041;26;20339;-78
2024/04/23 01:01:58;;;;;;;2.67;2.47;;;;;;;;;;5524845;26;20328;-78
2024/04/23 01:04:25;;;;;;;2.58;2.38;;;;;;;;;;5525139;26;20359;-79
2024/04/23 01:06:51;;;;;;;2.40;2.20;;;;;;;;;;5524688;26;20328;-79
2024/04/23 01:09:20;;;;;;;3.00;2.20;;;;;;;;;;5524876;26;20397;-78
2024/04/23 01:11:47;;;;;;;2.25;2.05;;;;;;;;;;5525151;26;20459;-78
2024/04/23 01:14:13;;;;;;;2.50;2.30;;;;;;;;;;5525381;26;20375;-78
2024/04/23 01:16:41;;;;;;;2.45;2.30;;;;;;;;;;5522701;26;20332;-78
2024/04/23 01:19:10;;;;;;;4.00;2.37;;;;;;;;;;5525170;26;20387;-78
2024/04/23 01:21:57;;;;;;;3.10;2.35;;;;;;;;;;5524986;26;20900;-78
2024/04/23 01:24:26;;;;;;;2.40;2.20;;;;;;;;;;5520805;26;20411;-78
2024/04/23 01:26:52;;;;;;;2.75;2.30;;;;;;;;;;5514828;26;20331;-79
2024/04/23 01:29:18;;;;;;;2.53;2.20;;;;;;;;;;5525387;26;20699;-78
2024/04/23 01:31:44;;;;;;;2.47;2.13;;;;;;;;;;5525209;26;20339;-78
2024/04/23 01:34:10;;;;;;;3.20;2.40;;;;;;;;;;5525132;26;20324;-78
2024/04/23 01:36:36;;;;;;;2.97;2.25;;;;;;;;;;5525520;26;20328;-78
2024/04/23 01:39:03;;;;;;;2.28;2.08;;;;;;;;;;5525121;26;20366;-78
2024/04/23 01:41:29;;;;;;;2.58;2.30;;;;;;;;;;5524851;26;20496;-79
2024/04/23 01:43:55;;;;;;;2.50;2.30;;;;;;;;;;5524655;26;20372;-78
2024/04/23 01:46:22;;;;;;;2.55;2.30;;;;;;;;;;5522462;26;20751;-79
2024/04/23 01:48:48;;;;;;;4.07;2.47;;;;;;;;;;5521290;26;20328;-78
2024/04/23 01:51:14;;;;;;;2.58;2.38;;;;;;;;;;5524584;26;20436;-78
2024/04/23 01:53:40;;;;;;;2.30;2.10;;;;;;;;;;5524731;26;20324;-79
2024/04/23 01:56:06;;;;;;;2.50;2.30;;;;;;;;;;5524485;26;20371;-78
2024/04/23 01:58:32;;;;;;;2.87;2.67;;;;;;;;;;5524475;26;20773;-79
2024/04/23 02:00:59;;;;;;;2.67;2.47;;;;;;;;;;5524110;26;20382;-79
2024/04/23 02:03:25;;;;;;;2.83;2.63;;;;;;;;;;5524212;26;20353;-79
2024/04/23 02:05:53;;;;;;;3.33;2.50;;;;;;;;;;5524944;26;20444;-79
2024/04/23 02:08:20;;;;;;;2.95;2.70;;;;;;;;;;5524543;26;20380;-79
2024/04/23 02:10:46;;;;;;;2.90;2.70;;;;;;;;;;5523777;26;20502;-78
2024/04/23 02:13:12;;;;;;;2.63;2.42;;;;;;;;;;5523912;26;20323;-78
2024/04/23 02:15:38;;;;;;;3.03;2.42;;;;;;;;;;5524479;26;20324;-78
2024/04/23 02:18:04;;;;;;;3.13;2.80;;;;;;;;;;5523001;26;20343;-78
2024/04/23 02:20:30;;;;;;;3.50;2.92;;;;;;;;;;5524278;26;20429;-79
2024/04/23 02:22:56;;;;;;;4.07;3.10;;;;;;;;;;5524482;26;20340;-79
2024/04/23 02:25:23;;;;;;;2.92;2.72;;;;;;;;;;5523827;26;20332;-78
2024/04/23 02:27:49;;;;;;;3.50;3.00;;;;;;;;;;5524183;26;20820;-79
2024/04/23 02:30:15;;;;;;;3.30;3.00;;;;;;;;;;5523667;26;20361;-78
2024/04/23 02:32:41;;;;;;;3.22;2.92;;;;;;;;;;5523653;26;20324;-78
2024/04/23 02:35:07;;;;;;;2.93;2.73;;;;;;;;;;5523543;26;20331;-78
2024/04/23 02:37:33;;;;;;;3.47;2.78;;;;;;;;;;5524536;26;20363;-79
2024/04/23 02:39:59;;;;;;;3.35;2.50;;;;;;;;;;5524900;26;20340;-79
2024/04/23 02:42:25;;;;;;;3.15;2.88;;;;;;;;;;5524981;26;20394;-79
2024/04/23 02:44:51;;;;;;;3.10;2.80;;;;;;;;;;5524571;26;20379;-79
2024/04/23 02:47:17;;;;;;;3.22;2.92;;;;;;;;;;5524934;26;20696;-78
2024/04/23 02:49:43;;;;;;;3.58;3.08;;;;;;;;;;5523567;26;20327;-78
2024/04/23 02:52:09;;;;;;;2.97;2.78;;;;;;;;;;5522874;26;20727;-78
2024/04/23 02:54:35;;;;;;;3.22;3.00;;;;;;;;;;5523496;26;20428;-78
2024/04/23 02:57:01;;;;;;;3.40;3.10;;;;;;;;;;5523594;26;20891;-78
2024/04/23 02:59:27;;;;;;;3.50;3.20;;;;;;;;;;5523206;26;20380;-78
2024/04/23 03:02:03;;;;;;;3.30;3.00;;;;;;;;;;5522948;26;20339;-78
2024/04/23 03:04:29;;;;;;;3.85;3.50;;;;;;;;;;5523233;26;20363;-78
2024/04/23 03:06:55;;;;;;;3.72;3.42;;;;;;;;;;5523467;26;20316;-78
2024/04/23 03:09:20;;;;;;;3.50;3.20;;;;;;;;;;5523310;26;20373;-78
2024/04/23 03:11:53;;;;;;;3.60;3.30;;;;;;;;;;5523828;26;20669;-78
2024/04/23 03:14:19;;;;;;;4.07;3.67;;;;;;;;;;5526835;26;20429;-78
2024/04/23 03:16:45;;;;;;;3.90;3.60;;;;;;;;;;5528140;26;20503;-78
2024/04/23 03:19:11;;;;;;;3.85;3.50;;;;;;;;;;5526289;26;20709;-78
2024/04/23 03:21:53;;;;;;;3.92;3.63;;;;;;;;;;5525674;26;20343;-78
2024/04/23 03:24:20;;;;;;;4.13;3.83;;;;;;;;;;5500875;26;20423;-79
2024/04/23 03:26:46;;;;;;;3.80;3.25;;;;;;;;;;5514668;26;20686;-78
2024/04/23 03:29:12;;;;;;;4.72;3.72;;;;;;;;;;5526272;26;20828;-78
2024/04/23 03:31:38;;;;;;;3.90;3.60;;;;;;;;;;5526045;26;20319;-78
2024/04/23 03:34:04;;;;;;;4.00;3.70;;;;;;;;;;5526201;26;20763;-78
2024/04/23 03:36:30;;;;;;;3.77;3.47;;;;;;;;;;5526253;26;20557;-78
2024/04/23 03:38:56;;;;;;;4.22;3.92;;;;;;;;;;5526738;26;20320;-79
2024/04/23 03:41:22;;;;;;;4.22;3.92;;;;;;;;;;5502461;26;20808;-79
2024/04/23 03:43:48;;;;;;;3.80;3.50;;;;;;;;;;5500359;26;20330;-80
2024/04/23 03:46:14;;;;;;;4.22;3.83;;;;;;;;;;5516839;26;20871;-78
2024/04/23 03:48:40;;;;;;;4.30;4.00;;;;;;;;;;5526286;26;20357;-78
2024/04/23 03:51:06;;;;;;;4.20;3.80;;;;;;;;;;5526776;26;20339;-78
2024/04/23 03:53:32;;;;;;;4.00;3.63;;;;;;;;;;5526101;26;20336;-78
2024/04/23 03:55:58;;;;;;;4.27;3.90;;;;;;;;;;5526277;26;20372;-78
2024/04/23 03:58:24;;;;;;;4.82;3.60;;;;;;;;;;5516269;26;20331;-78
2024/04/23 04:00:50;;;;;;;4.45;4.15;;;;;;;;;;5526275;26;20349;-78
2024/04/23 04:06:04;;;;;;;4.05;3.65;;;;;;;;;;5526002;26;20852;-78
2024/04/23 04:08:30;;;;;;;3.97;3.67;;;;;;;;;;5525946;26;20328;-79
2024/04/23 04:10:56;;;;;;;4.35;4.00;;;;;;;;;;5526695;26;20353;-78
2024/04/23 04:13:22;;;;;;;4.47;4.07;;;;;;;;;;5525945;26;20387;-78
2024/04/23 04:15:49;;;;;;;4.50;4.20;;;;;;;;;;5526032;26;20328;-78
2024/04/23 04:18:15;;;;;;;4.87;4.07;;;;;;;;;;5525980;26;20335;-78
2024/04/23 04:20:41;;;;;;;4.60;4.20;;;;;;;;;;5526139;26;20367;-78
2024/04/23 04:23:07;;;;;;;4.85;4.45;;;;;;;;;;5522606;26;20328;-78
2024/04/23 04:25:34;;;;;;;4.65;4.30;;;;;;;;;;5524538;26;20335;-80
2024/04/23 04:28:00;;;;;;;4.68;4.28;;;;;;;;;;5525817;26;20327;-78
2024/04/23 04:30:26;;;;;;;6.10;5.50;;;;;;;;;;5525376;26;20344;-78
2024/04/23 04:32:52;;;;;;;5.40;5.00;;;;;;;;;;5526269;26;20342;-79
2024/04/23 04:35:18;;;;;;;4.80;4.45;;;;;;;;;;5526099;26;20323;-78
2024/04/23 04:37:44;;;;;;;5.33;4.83;;;;;;;;;;5526262;26;20913;-78
2024/04/23 04:40:11;;;;;;;5.43;4.93;;;;;;;;;;5525161;26;20423;-79
2024/04/23 04:42:37;;;;;;;5.53;5.03;;;;;;;;;;5525914;26;20323;-79
2024/04/23 04:45:03;;;;;;;5.85;5.35;;;;;;;;;;5526462;26;20331;-79
2024/04/23 04:47:30;;;;;;;5.53;5.07;;;;;;;;;;5525571;26;20668;-79
2024/04/23 04:49:56;;;;;;;5.45;5.05;;;;;;;;;;5525603;26;20328;-79
2024/04/23 04:52:21;;;;;;;5.40;5.00;;;;;;;;;;5526929;26;20319;-79
2024/04/23 04:54:47;;;;;;;5.55;5.15;;;;;;;;;;5526349;26;20320;-78
2024/04/23 04:57:13;;;;;;;6.10;5.60;;;;;;;;;;5527069;26;20389;-79
2024/04/23 04:59:39;;;;;;;6.05;5.50;;;;;;;;;;5525939;26;20808;-78
2024/04/23 05:02:05;;;;;;;7.50;5.68;;;;;;;;;;5526554;26;20357;-79
2024/04/23 05:04:31;;;;;;;5.97;5.28;;;;;;;;;;5526223;26;20328;-79
2024/04/23 05:06:57;;;;;;;6.15;5.55;;;;;;;;;;5525045;26;20319;-80
2024/04/23 05:09:23;;;;;;;5.60;5.10;;;;;;;;;;5525408;26;20365;-79
2024/04/23 05:11:49;;;;;;;5.20;4.80;;;;;;;;;;5525922;26;20320;-80
2024/04/23 05:14:16;;;;;;;5.88;5.47;;;;;;;;;;5526332;26;21207;-81
2024/04/23 05:16:43;;;;;;;6.55;5.57;;;;;;;;;;5526614;26;20368;-82
2024/04/23 05:19:10;;;;;;;6.15;5.65;;;;;;;;;;5525701;26;20332;-80
2024/04/23 05:21:36;;;;;;;5.43;4.93;;;;;;;;;;5492551;26;20704;-80
2024/04/23 05:24:02;;;;;;;6.20;5.60;;;;;;;;;;5523341;26;20328;-80
2024/04/23 05:26:28;;;;;;;6.17;5.67;;;;;;;;;;5508532;26;20852;-80
2024/04/23 05:28:54;;;;;;;5.93;5.43;;;;;;;;;;5524776;26;20327;-80
2024/04/23 05:34:05;;;;;;;6.72;6.13;;;;;;;;;;5525007;26;20352;-80
2024/04/23 05:36:31;;;;;;;9.25;6.47;;;;;;;;;;5524254;26;20323;-80
2024/04/23 05:38:57;;;;;;;7.10;6.50;;;;;;;;;;5524854;26;20405;-80
2024/04/23 05:41:23;;;;;;;6.68;6.07;;;;;;;;;;5524583;26;20335;-80
2024/04/23 05:43:48;;;;;;;6.68;6.07;;;;;;;;;;5525207;26;20367;-80
2024/04/23 05:46:14;;;;;;;7.30;6.60;;;;;;;;;;5524301;26;20662;-80
2024/04/23 05:48:59;;;;;;;6.78;6.07;;;;;;;;;;5525132;26;20380;-80
2024/04/23 05:51:44;;;;;;;8.52;7.82;;;;;;;;;;5525026;26;20319;-80
2024/04/23 05:54:28;;;;;;;7.07;6.50;;;;;;;;;;5525689;26;20388;-80
2024/04/23 05:56:54;;;;;;;6.97;6.38;;;;;;;;;;5524163;26;20391;-80
2024/04/23 05:59:20;;;;;;;7.25;6.65;;;;;;;;;;5524699;26;20327;-80
2024/04/23 06:01:46;;;;;;;7.25;6.60;;;;;;;;;;5524664;26;20376;-80
2024/04/23 06:04:12;;;;;;;7.45;6.85;;;;;;;;;;5524659;26;20327;-80
2024/04/23 06:06:38;;;;;;;6.95;6.35;;;;;;;;;;5518622;26;20332;-80
2024/04/23 06:09:04;;;;;;;7.22;6.53;;;;;;;;;;5523649;26;20336;-80
2024/04/23 06:11:30;;;;;;;8.02;6.50;;;;;;;;;;5524395;26;20946;-80
2024/04/23 06:14:06;;;;;;;7.28;6.55;;;;;;;;;;5524009;26;20328;-79
2024/04/23 06:16:32;;;;;;;7.43;6.82;;;;;;;;;;5523537;26;20743;-80
2024/04/23 06:18:57;;;;;;;6.88;6.28;;;;;;;;;;5524143;26;20336;-80
2024/04/23 06:21:23;;;;;;;7.03;6.53;;;;;;;;;;5523796;26;20383;-80
2024/04/23 06:23:49;;;;;;;7.23;6.63;;;;;;;;;;5523447;26;20328;-80
2024/04/23 06:26:16;;;;;;;7.05;6.53;;;;;;;;;;5507645;26;20336;-79
2024/04/23 06:28:41;;;;;;;7.50;6.90;;;;;;;;;;5523277;26;20336;-79
2024/04/23 06:31:11;;;;;;;7.07;6.47;;;;;;;;;;5523793;26;20357;-79
2024/04/23 06:33:37;;;;;;;7.40;6.72;;;;;;;;;;5523321;26;20431;-79
2024/04/23 06:36:03;;;;;;;7.22;6.53;;;;;;;;;;5522796;26;20339;-80
2024/04/23 06:38:29;;;;;;;7.25;6.65;;;;;;;;;;5523248;26;20339;-80
2024/04/23 06:40:55;;;;;;;6.63;6.03;;;;;;;;;;5523795;26;20670;-80
2024/04/23 06:43:20;;;;;;;6.75;6.15;;;;;;;;;;5523354;26;20331;-80
2024/04/23 06:45:46;;;;;;;8.00;7.30;;;;;;;;;;5523508;26;20363;-80
2024/04/23 06:48:15;;;;;;;10.57;8.65;;;;;;;;;;5524105;26;20386;-80
2024/04/23 06:50:41;;;;;;;12.38;9.93;;;;;;;;;;5527023;26;20703;-80
2024/04/23 06:53:07;;;;;;;8.20;7.30;;;;;;;;;;5526814;26;20327;-80
2024/04/23 06:55:33;;;;;;;7.80;7.20;;;;;;;;;;5527057;26;20395;-80
2024/04/23 06:57:59;;;;;;;8.10;7.30;;;;;;;;;;5526522;26;20380;-79
2024/04/23 07:00:25;;;;;;;7.05;6.45;;;;;;;;;;5526838;26;20857;-80
2024/04/23 07:02:51;;;;;;;7.10;6.53;;;;;;;;;;5526393;26;20697;-80
2024/04/23 07:05:17;;;;;;;6.78;6.20;;;;;;;;;;5526587;26;20824;-80
2024/04/23 07:07:43;;;;;;;7.15;6.50;;;;;;;;;;5526638;26;20355;-80
2024/04/23 07:10:09;;;;;;;7.38;6.78;;;;;;;;;;5526633;26;20358;-80
2024/04/23 07:12:35;;;;;;;7.20;6.60;;;;;;;;;;5526433;26;20339;-80
2024/04/23 07:15:01;;;;;;;6.70;6.20;;;;;;;;;;5526636;26;20883;-80
2024/04/23 07:17:27;;;;;;;8.25;6.95;;;;;;;;;;5526315;26;20372;-79
2024/04/23 07:19:53;;;;;;;7.57;6.97;;;;;;;;;;5526097;26;20378;-79
2024/04/23 07:22:19;;;;;;;7.28;6.60;;;;;;;;;;5526902;26;20428;-79
2024/04/23 07:24:45;;;;;;;7.40;6.80;;;;;;;;;;5516355;26;20330;-80
2024/04/23 07:27:11;;;;;;;7.57;6.87;;;;;;;;;;5518514;26;20363;-80
2024/04/23 07:29:37;;;;;;;7.25;6.65;;;;;;;;;;5526551;26;20741;-80
2024/04/23 07:32:03;;;;;;;7.43;6.82;;;;;;;;;;5526408;26;20432;-80
2024/04/23 07:34:29;;;;;;;7.78;6.90;;;;;;;;;;5526279;26;20359;-80
2024/04/23 07:36:55;;;;;;;7.53;6.93;;;;;;;;;;5525924;26;20676;-80
2024/04/23 07:39:21;;;;;;;8.07;7.37;;;;;;;;;;5525746;26;20335;-80
2024/04/23 07:41:47;;;;;;;8.23;7.43;;;;;;;;;;5526114;26;20815;-79
2024/04/23 07:44:13;;;;;;;8.32;7.53;;;;;;;;;;5526750;26;20332;-80
2024/04/23 07:46:39;;;;;;;8.32;7.63;;;;;;;;;;5526067;26;20324;-80
2024/04/23 07:49:05;;;;;;;8.15;7.38;;;;;;;;;;5525604;26;20867;-80
2024/04/23 07:51:32;;;;;;;8.40;7.68;;;;;;;;;;5525832;26;20323;-79
2024/04/23 07:53:58;;;;;;;8.18;7.47;;;;;;;;;;5526015;26;20328;-80
2024/04/23 07:56:24;;;;;;;8.68;7.97;;;;;;;;;;5525803;26;20424;-80
2024/04/23 07:58:50;;;;;;;8.25;7.50;;;;;;;;;;5525459;26;20424;-79
2024/04/23 08:01:17;;;;;;;8.52;7.72;;;;;;;;;;5519715;26;20811;-80
2024/04/23 08:03:43;;;;;;;8.50;7.75;;;;;;;;;;5525311;26;20906;-79
2024/04/23 08:06:09;;;;;;;9.23;8.43;;;;;;;;;;5525301;26;20390;-80
2024/04/23 08:08:35;;;;;;;8.73;7.97;;;;;;;;;;5525100;26;20379;-80
2024/04/23 08:11:01;;;;;;;8.32;7.63;;;;;;;;;;5525825;26;20358;-79
2024/04/23 08:13:28;;;;;;;8.50;7.75;;;;;;;;;;5524912;26;20320;-80
2024/04/23 08:15:56;;;;;;;8.45;7.65;;;;;;;;;;5525666;26;20335;-80
2024/04/23 08:18:22;;;;;;;8.10;7.43;;;;;;;;;;5525555;26;20339;-79
2024/04/23 08:20:48;;;;;;;8.60;7.80;;;;;;;;;;5525612;26;20814;-79
2024/04/23 08:23:15;;;;;;;8.93;8.02;;;;;;;;;;5526405;26;20332;-79
2024/04/23 08:25:41;;;;;;;8.15;7.45;;;;;;;;;;5509427;26;20352;-79
2024/04/23 08:28:07;;;;;;;7.95;7.22;;;;;;;;;;5523067;26;20328;-79
2024/04/23 08:30:33;;;;;;;8.60;7.90;;;;;;;;;;5524848;26;20941;-79
2024/04/23 08:32:59;;;;;;;8.18;7.43;;;;;;;;;;5525150;26;20335;-79
2024/04/23 08:35:25;;;;;;;8.50;7.80;;;;;;;;;;5525196;26;20734;-80
2024/04/23 08:37:51;;;;;;;8.27;7.57;;;;;;;;;;5525295;26;20441;-80
2024/04/23 08:40:17;;;;;;;8.75;7.95;;;;;;;;;;5524468;26;20384;-80
2024/04/23 08:42:44;;;;;;;7.70;7.00;;;;;;;;;;5524818;26;20344;-80
2024/04/23 08:45:11;;;;;;;8.23;7.55;;;;;;;;;;5524642;26;20340;-80
2024/04/23 08:47:37;;;;;;;7.87;7.27;;;;;;;;;;5524860;26;20557;-80
2024/04/23 08:50:03;;;;;;;7.93;7.22;;;;;;;;;;5524653;26;20348;-80
2024/04/23 08:52:29;;;;;;;7.95;7.35;;;;;;;;;;5525225;26;20865;-80
2024/04/23 08:54:56;;;;;;;8.50;7.80;;;;;;;;;;5524915;26;20324;-80
2024/04/23 08:57:22;;;;;;;8.10;7.40;;;;;;;;;;5525129;26;20738;-80
2024/04/23 08:59:48;;;;;;;8.25;7.55;;;;;;;;;;5524271;26;20393;-80
2024/04/23 09:02:22;;;;;;;8.68;7.97;;;;;;;;;;5525196;26;20375;-80
2024/04/23 09:04:48;;;;;;;7.63;7.03;;;;;;;;;;5525187;26;20328;-80
2024/04/23 09:07:14;;;;;;;8.20;7.43;;;;;;;;;;5525212;26;20412;-80
2024/04/23 09:09:41;;;;;;;7.97;6.85;;;;;;;;;;5524428;26;20819;-80
2024/04/23 09:12:07;;;;;;;7.90;7.20;;;;;;;;;;5524385;26;20425;-80
2024/04/23 09:14:34;;;;;;;7.78;7.18;;;;;;;;;;5525003;26;20354;-80
2024/04/23 09:17:01;;;;;;;7.50;6.80;;;;;;;;;;5524780;26;20328;-80
2024/04/23 09:19:28;;;;;;;7.75;7.05;;;;;;;;;;5524522;26;20368;-80
2024/04/23 09:21:54;;;;;;;7.68;6.97;;;;;;;;;;5525107;26;20315;-80
2024/04/23 09:24:27;;;;;;;7.78;6.97;;;;;;;;;;5520907;26;20378;-80
2024/04/23 09:26:53;;;;;;;8.18;7.47;;;;;;;;;;5513872;26;20324;-80
2024/04/23 09:29:19;;;;;;;7.50;6.85;;;;;;;;;;5522076;26;20323;-80
2024/04/23 09:31:45;;;;;;;8.25;7.35;;;;;;;;;;5524082;26;20486;-80
2024/04/23 09:34:11;;;;;;;8.23;7.43;;;;;;;;;;5524282;26;20456;-80
2024/04/23 09:36:38;;;;;;;7.90;7.10;;;;;;;;;;5524556;26;20764;-80
2024/04/23 09:39:14;;;;;;;7.82;7.22;;;;;;;;;;5524507;26;20787;-80
2024/04/23 09:41:40;;;;;;;7.22;6.68;;;;;;;;;;5524322;26;20812;-80
2024/04/23 09:44:10;;;;;;;6.10;5.60;;;;;;;;;;5524479;26;20315;-80
2024/04/23 09:46:36;;;;;;;6.65;6.05;;;;;;;;;;5524391;26;20390;-80
2024/04/23 09:49:06;;;;;;;6.95;6.35;;;;;;;;;;5524612;26;20324;-80
2024/04/23 09:51:32;;;;;;;6.53;6.03;;;;;;;;;;5524325;26;20323;-80
2024/04/23 09:54:01;;;;;;;6.15;5.63;;;;;;;;;;5524202;26;20320;-80
2024/04/23 09:56:27;;;;;;;6.20;5.28;;;;;;;;;;5524282;26;20323;-80
2024/04/23 09:58:53;;;;;;;5.53;5.13;;;;;;;;;;5523741;26;20901;-80
2024/04/23 10:01:21;;;;;;;5.78;4.88;;;;;;;;;;5522233;26;20669;-80
2024/04/23 10:03:49;;;;;;;4.90;4.53;;;;;;;;;;5502368;26;20427;-81
2024/04/23 10:06:21;;;;;;;5.05;4.57;;;;;;;;;;5524106;26;20897;-79
2024/04/23 10:08:47;;;;;;;4.95;4.45;;;;;;;;;;5525235;26;20315;-79
2024/04/23 10:11:14;;;;;;;4.32;3.92;;;;;;;;;;5524192;26;20844;-79
2024/04/23 10:13:48;;;;;;;3.80;3.50;;;;;;;;;;5524297;26;20328;-79
2024/04/23 10:16:26;;;;;;;3.70;3.40;;;;;;;;;;5524251;26;20372;-79
2024/04/23 10:18:51;;;;;;;4.00;3.67;;;;;;;;;;5523836;26;20316;-81
2024/04/23 10:21:20;;;;;;;4.38;4.07;;;;;;;;;;5523953;26;20707;-80
2024/04/23 10:23:47;;;;;;;4.00;3.60;;;;;;;;;;5523273;26;20432;-80
2024/04/23 10:26:14;;;;;;;3.75;3.45;;;;;;;;;;5508523;26;20320;-80
2024/04/23 10:28:40;;;;;;;3.92;3.53;;;;;;;;;;5524186;26;20355;-80
2024/04/23 10:31:06;;;;;;;3.65;3.35;;;;;;;;;;5524837;26;20355;-80
2024/04/23 10:33:33;;;;;;;3.45;3.15;;;;;;;;;;5524312;26;20356;-80
2024/04/23 10:36:03;;;;;;;3.03;2.83;;;;;;;;;;5524409;26;20367;-80
2024/04/23 10:38:31;;;;;;;3.60;3.30;;;;;;;;;;5523212;26;20327;-80
2024/04/23 10:40:58;;;;;;;3.17;2.88;;;;;;;;;;5523736;26;20813;-80
2024/04/23 10:43:24;;;;;;;3.38;2.70;;;;;;;;;;5523873;26;20365;-80
2024/04/23 10:45:50;;;;;;;2.70;2.50;;;;;;;;;;5523853;26;20324;-80
2024/04/23 10:48:24;;;;;;;3.13;2.83;;;;;;;;;;5490733;26;20654;-79
2024/04/23 10:50:53;;;;;;;3.00;2.80;;;;;;;;;;5523719;26;20480;-79
2024/04/23 10:53:19;;;;;;;3.75;3.05;;;;;;;;;;5523252;26;20421;-79
2024/04/23 10:55:52;;;;;;;3.40;3.10;;;;;;;;;;5523380;26;20698;-80
2024/04/23 10:58:19;;;;;;;3.13;2.88;;;;;;;;;;5526301;26;20328;-79
2024/04/23 11:00:45;;;;;;;2.90;2.70;;;;;;;;;;5524797;26;20323;-79
2024/04/23 11:03:17;;;;;;;3.35;3.05;;;;;;;;;;5491499;26;20840;-79
2024/04/23 11:05:47;;;;;;;3.63;3.33;;;;;;;;;;5524299;26;20328;-79
2024/04/23 11:08:21;;;;;;;3.40;3.20;;;;;;;;;;5523401;26;20820;-79
2024/04/23 11:10:47;;;;;;;4.00;3.27;;;;;;;;;;5523860;26;20398;-79
2024/04/23 11:13:30;;;;;;;3.20;2.97;;;;;;;;;;5523883;26;20414;-79
2024/04/23 11:15:58;;;;;;;3.17;2.88;;;;;;;;;;5501411;26;20831;-79
2024/04/23 11:18:25;;;;;;;3.27;3.00;;;;;;;;;;5523174;26;20960;-79
2024/04/23 11:20:54;;;;;;;4.03;3.00;;;;;;;;;;5522780;26;20316;-79
2024/04/23 11:23:22;;;;;;;3.08;2.85;;;;;;;;;;5523420;26;20332;-79
2024/04/23 11:25:49;;;;;;;3.35;2.75;;;;;;;;;;5506808;26;20323;-79
2024/04/23 11:28:15;;;;;;;2.90;2.70;;;;;;;;;;5522712;26;20457;-79
2024/04/23 11:30:42;;;;;;;3.20;2.90;;;;;;;;;;5522265;26;20360;-79
2024/04/23 11:33:10;;;;;;;3.60;3.30;;;;;;;;;;5522767;26;20455;-79
2024/04/23 11:35:38;;;;;;;3.80;3.50;;;;;;;;;;5524612;26;20311;-79
2024/04/23 11:38:04;;;;;;;3.70;3.40;;;;;;;;;;5526286;26;20320;-79
2024/04/23 11:40:30;;;;;;;4.00;3.58;;;;;;;;;;5526469;26;20315;-79
2024/04/23 11:42:56;;;;;;;4.65;4.32;;;;;;;;;;5526824;26;20684;-79
2024/04/23 11:45:22;;;;;;;4.90;4.40;;;;;;;;;;5526225;26;20319;-79
2024/04/23 11:47:54;;;;;;;4.40;4.10;;;;;;;;;;5524774;26;20363;-80
2024/04/23 11:50:20;;;;;;;4.03;3.50;;;;;;;;;;5524954;26;20324;-79
2024/04/23 11:52:46;;;;;;;3.85;3.55;;;;;;;;;;5525274;26;20324;-81
2024/04/23 11:55:12;;;;;;;4.50;4.10;;;;;;;;;;5525356;26;20331;-79
2024/04/23 11:57:38;;;;;;;4.30;4.00;;;;;;;;;;5525245;26;20356;-79
2024/04/23 12:00:05;;;;;;;5.10;4.03;;;;;;;;;;5524949;26;20307;-79
2024/04/23 12:02:34;;;;;;;4.10;3.80;;;;;;;;;;5525272;26;20339;-79
2024/04/23 12:05:03;;;;;;;4.50;4.10;;;;;;;;;;5519553;26;20425;-80
2024/04/23 12:07:30;;;;;;;3.97;3.67;;;;;;;;;;5525188;26;20730;-80
2024/04/23 12:10:03;;;;;;;4.03;3.58;;;;;;;;;;5525431;26;20355;-79
2024/04/23 12:12:30;;;;;;;4.82;4.30;;;;;;;;;;5524848;26;20323;-79
2024/04/23 12:14:56;;;;;;;4.63;4.22;;;;;;;;;;5525294;26;20516;-79
2024/04/23 12:17:22;;;;;;;4.80;3.80;;;;;;;;;;5525467;26;20335;-79
2024/04/23 12:19:49;;;;;;;4.57;4.18;;;;;;;;;;5525731;26;20447;-79
2024/04/23 12:22:18;;;;;;;3.33;3.03;;;;;;;;;;5525908;26;20454;-79
2024/04/23 12:24:44;;;;;;;3.80;3.50;;;;;;;;;;5520102;26;20338;-79
2024/04/23 12:27:10;;;;;;;5.53;3.00;;;;;;;;;;5521823;26;20385;-79
2024/04/23 12:29:38;;;;;;;3.55;3.25;;;;;;;;;;5527439;26;20331;-79
2024/04/23 12:32:04;;;;;;;4.33;3.83;;;;;;;;;;5528671;26;20380;-79
2024/04/23 12:34:31;;;;;;;5.35;4.85;;;;;;;;;;5528057;26;20925;-79
2024/04/23 12:36:57;;;;;;;5.95;5.45;;;;;;;;;;5529103;26;20427;-79
2024/04/23 12:39:23;;;;;;;6.90;6.30;;;;;;;;;;5526111;26;20339;-79
2024/04/23 12:41:49;;;;;;;7.13;6.53;;;;;;;;;;5529079;26;20316;-79
2024/04/23 12:44:16;;;;;;;6.45;5.95;;;;;;;;;;5527740;26;20383;-79
2024/04/23 12:46:42;;;;;;;7.25;6.65;;;;;;;;;;5527224;26;20335;-79
2024/04/23 12:49:08;;;;;;;6.38;5.80;;;;;;;;;;5527667;26;20371;-79
2024/04/23 12:51:34;;;;;;;6.47;5.88;;;;;;;;;;5528426;26;20335;-79
2024/04/23 12:54:01;;;;;;;5.85;5.43;;;;;;;;;;5528370;26;20419;-79
2024/04/23 12:56:28;;;;;;;7.60;6.90;;;;;;;;;;5495716;26;20360;-79
2024/04/23 12:58:55;;;;;;;6.93;6.43;;;;;;;;;;5528569;26;20387;-79
2024/04/23 13:01:24;;;;;;;7.13;6.53;;;;;;;;;;5527532;26;20339;-79
2024/04/23 13:03:50;;;;;;;6.80;6.20;;;;;;;;;;5527889;26;20364;-79
2024/04/23 13:06:16;;;;;;;6.55;6.05;;;;;;;;;;5528552;26;20328;-79
2024/04/23 13:08:44;;;;;;;7.22;6.63;;;;;;;;;;5527558;26;20383;-79
2024/04/23 13:11:10;;;;;;;7.10;6.47;;;;;;;;;;5527424;26;20327;-79
2024/04/23 13:13:36;;;;;;;9.05;7.40;;;;;;;;;;5528438;26;20335;-79
2024/04/23 13:16:02;;;;;;;9.13;8.38;;;;;;;;;;5528514;26;20766;-79
2024/04/23 13:18:28;;;;;;;7.60;7.00;;;;;;;;;;5529016;26;20363;-79
2024/04/23 13:20:54;;;;;;;7.53;6.85;;;;;;;;;;5529223;26;20324;-79
2024/04/23 13:23:20;;;;;;;9.10;8.32;;;;;;;;;;5527769;26;20411;-79
2024/04/23 13:25:46;;;;;;;11.15;10.05;;;;;;;;;;5512746;26;20335;-79
2024/04/23 13:28:12;;;;;;;8.60;7.90;;;;;;;;;;5528762;26;20890;-79
2024/04/23 13:30:38;;;;;;;8.50;7.40;;;;;;;;;;5527289;26;20339;-79
2024/04/23 13:33:04;;;;;;;6.82;6.32;;;;;;;;;;5528749;26;20331;-79
2024/04/23 13:35:30;;;;;;;6.72;6.22;;;;;;;;;;5528074;26;20331;-79
2024/04/23 13:37:56;;;;;;;6.60;6.10;;;;;;;;;;5527973;26;20335;-79
2024/04/23 13:40:22;;;;;;;7.70;7.00;;;;;;;;;;5530697;26;20730;-79
2024/04/23 13:42:48;;;;;;;7.28;6.68;;;;;;;;;;5529083;26;20385;-79
2024/04/23 13:45:14;;;;;;;5.90;5.40;;;;;;;;;;5529457;26;20343;-79
2024/04/23 13:47:41;;;;;;;6.13;5.63;;;;;;;;;;5527872;26;20364;-79
2024/04/23 13:50:07;;;;;;;6.28;5.78;;;;;;;;;;5527076;26;20869;-79
2024/04/23 13:52:34;;;;;;;6.22;5.72;;;;;;;;;;5525557;26;20315;-79
2024/04/23 13:55:00;;;;;;;6.10;5.60;;;;;;;;;;5525383;26;20816;-79
2024/04/23 13:57:26;;;;;;;5.88;5.38;;;;;;;;;;5522160;26;20421;-78
2024/04/23 13:59:52;;;;;;;5.50;5.00;;;;;;;;;;5487443;26;20334;-79
2024/04/23 14:02:20;;;;;;;6.30;5.80;;;;;;;;;;5527027;26;20379;-79
2024/04/23 14:04:46;;;;;;;5.97;5.50;;;;;;;;;;5524588;26;20358;-79
2024/04/23 14:07:16;;;;;;;6.00;5.50;;;;;;;;;;5526094;26;20649;-79
2024/04/23 14:09:42;;;;;;;6.15;5.63;;;;;;;;;;5524978;26;20440;-80
2024/04/23 14:12:11;;;;;;;6.47;5.88;;;;;;;;;;5524554;26;20343;-79
2024/04/23 14:14:37;;;;;;;6.10;5.60;;;;;;;;;;5524889;26;20391;-79
2024/04/23 14:17:04;;;;;;;6.25;5.75;;;;;;;;;;5524152;26;20423;-79
2024/04/23 14:19:33;;;;;;;6.25;5.65;;;;;;;;;;5524590;26;20343;-79
2024/04/23 14:22:00;;;;;;;5.80;5.40;;;;;;;;;;5524036;26;20320;-79
2024/04/23 14:24:26;;;;;;;5.57;5.13;;;;;;;;;;5518731;26;20375;-79
2024/04/23 14:26:53;;;;;;;5.90;5.40;;;;;;;;;;5513262;26;20383;-79
2024/04/23 14:29:18;;;;;;;5.57;5.18;;;;;;;;;;5523735;26;20343;-79
2024/04/23 14:31:45;;;;;;;6.90;5.13;;;;;;;;;;5523560;26;20336;-79
2024/04/23 14:34:11;;;;;;;5.85;5.30;;;;;;;;;;5524872;26;20726;-79
2024/04/23 14:36:37;;;;;;;5.40;5.00;;;;;;;;;;5522952;26;20328;-79
2024/04/23 14:39:03;;;;;;;5.55;5.05;;;;;;;;;;5523732;26;20332;-79
2024/04/23 14:41:29;;;;;;;5.70;5.30;;;;;;;;;;5525008;26;20362;-79
2024/04/23 14:43:55;;;;;;;5.38;4.88;;;;;;;;;;5523905;26;20374;-79
2024/04/23 14:46:21;;;;;;;4.90;4.50;;;;;;;;;;5524226;26;20323;-79